TAP55F EDDM-LPPT
Flight info
| Callsign | TAP55F |
|---|---|
| Flight time | N/A |
| Altitude | 41000 |
| Route | MERSI5S/26L MERSI Y100 UMTEX/N0392F230 Y100 TRA/N0470F390 DCT LUTIX DCT BENOT DCT NEMOS DCT NINTU DCT MEBAK DCT REPSI DCT LERGA DCT MINSO DCT NARAK DCT AGN DCT LATEK DCT PPN DCT MIRPO DCT DGO DCT NEA DCT ARDID DCT INBOM LPPT/02 INBOM2A/02 |
| Aircraft | A339/H-VGDWY/LB1 |
Departure
| Time | N/A |
|---|---|
| Airport | Munich Airport (EDDM) |
Arrival
| Time | 2026-05-07 18:57 |
|---|---|
| Airport | Lisbon Humberto Delgado Airport (LPPT) |
| Time | Latitude | Longitude | Altitude | Speed | Heading |
|---|---|---|---|---|---|
| 2026-05-07 18:42 | 38.63659 | -9.05925 | 3994 ft | 239 kts | 153° |
| 2026-05-07 18:43 | 38.62313 | -9.04925 | 3995 ft | 214 kts | 153° |
| 2026-05-07 18:43 | 38.60977 | -9.03936 | 4007 ft | 225 kts | 153° |
| 2026-05-07 18:43 | 38.59630 | -9.02938 | 3999 ft | 226 kts | 153° |
| 2026-05-07 18:43 | 38.58271 | -9.01931 | 3999 ft | 225 kts | 153° |
| 2026-05-07 18:44 | 38.56916 | -9.00930 | 4009 ft | 223 kts | 153° |
| 2026-05-07 18:44 | 38.55566 | -8.99938 | 4002 ft | 224 kts | 153° |
| 2026-05-07 18:44 | 38.54208 | -8.98943 | 4004 ft | 224 kts | 153° |
| 2026-05-07 18:44 | 38.53312 | -8.98285 | 4007 ft | 224 kts | 153° |
| 2026-05-07 18:45 | 38.51357 | -8.97687 | 4014 ft | 219 kts | 184° |
| 2026-05-07 18:45 | 38.49840 | -8.97711 | 4014 ft | 216 kts | 184° |
| 2026-05-07 18:45 | 38.48844 | -8.97729 | 4016 ft | 216 kts | 184° |
| 2026-05-07 18:45 | 38.47312 | -8.97751 | 4010 ft | 220 kts | 184° |
| 2026-05-07 18:46 | 38.45814 | -8.97912 | 4007 ft | 213 kts | 199° |
| 2026-05-07 18:46 | 38.44542 | -8.98814 | 4032 ft | 209 kts | 219° |
| 2026-05-07 18:46 | 38.43372 | -8.99906 | 4008 ft | 210 kts | 219° |
| 2026-05-07 18:46 | 38.42196 | -9.01001 | 4016 ft | 210 kts | 219° |
| 2026-05-07 18:47 | 38.41006 | -9.02108 | 4021 ft | 210 kts | 219° |
| 2026-05-07 18:47 | 38.39829 | -9.03197 | 4019 ft | 211 kts | 219° |
| 2026-05-07 18:47 | 38.38639 | -9.04293 | 4021 ft | 210 kts | 219° |
| 2026-05-07 18:47 | 38.37549 | -9.05486 | 4018 ft | 206 kts | 235° |
| 2026-05-07 18:48 | 38.37037 | -9.07160 | 4026 ft | 203 kts | 266° |
| 2026-05-07 18:48 | 38.37329 | -9.08955 | 4024 ft | 219 kts | 297° |
| 2026-05-07 18:48 | 38.38289 | -9.10510 | 4017 ft | 226 kts | 310° |
| 2026-05-07 18:48 | 38.39306 | -9.12004 | 4026 ft | 223 kts | 309° |
| 2026-05-07 18:49 | 38.40327 | -9.13509 | 4020 ft | 223 kts | 309° |
| 2026-05-07 18:49 | 38.41358 | -9.14788 | 4021 ft | 224 kts | 325° |
| 2026-05-07 18:49 | 38.42810 | -9.15531 | 4023 ft | 228 kts | 340° |
| 2026-05-07 18:49 | 38.44336 | -9.16160 | 4018 ft | 229 kts | 339° |
| 2026-05-07 18:50 | 38.45828 | -9.16787 | 4017 ft | 227 kts | 339° |
| 2026-05-07 18:50 | 38.47324 | -9.17411 | 4014 ft | 226 kts | 339° |
| 2026-05-07 18:50 | 38.48809 | -9.18080 | 4017 ft | 227 kts | 339° |
| 2026-05-07 18:50 | 38.50321 | -9.18710 | 4014 ft | 228 kts | 339° |
| 2026-05-07 18:51 | 38.51813 | -9.19334 | 4012 ft | 226 kts | 339° |
| 2026-05-07 18:51 | 38.53310 | -9.19968 | 4010 ft | 221 kts | 339° |
| 2026-05-07 18:51 | 38.54704 | -9.20550 | 4005 ft | 202 kts | 339° |
| 2026-05-07 18:51 | 38.55990 | -9.21081 | 4004 ft | 186 kts | 339° |
| 2026-05-07 18:52 | 38.57176 | -9.21562 | 4034 ft | 170 kts | 339° |
| 2026-05-07 18:52 | 38.58282 | -9.22003 | 4045 ft | 172 kts | 339° |
| 2026-05-07 18:52 | 38.59441 | -9.22459 | 4020 ft | 174 kts | 340° |
| 2026-05-07 18:52 | 38.60652 | -9.22630 | 3803 ft | 178 kts | 0° |
| 2026-05-07 18:53 | 38.61855 | -9.22275 | 3556 ft | 178 kts | 15° |
| 2026-05-07 18:53 | 38.62986 | -9.21689 | 3317 ft | 176 kts | 20° |
| 2026-05-07 18:53 | 38.64099 | -9.21079 | 3072 ft | 173 kts | 18° |
| 2026-05-07 18:53 | 38.65208 | -9.20493 | 2811 ft | 171 kts | 18° |
| 2026-05-07 18:54 | 38.66319 | -9.19905 | 2572 ft | 169 kts | 19° |
| 2026-05-07 18:54 | 38.67384 | -9.19323 | 2363 ft | 169 kts | 17° |
| 2026-05-07 18:54 | 38.68486 | -9.18756 | 2118 ft | 170 kts | 18° |
| 2026-05-07 18:54 | 38.69562 | -9.18164 | 1883 ft | 166 kts | 17° |
| 2026-05-07 18:55 | 38.70644 | -9.17606 | 1668 ft | 170 kts | 17° |
| 2026-05-07 18:55 | 38.71722 | -9.17015 | 1443 ft | 161 kts | 18° |
| 2026-05-07 18:55 | 38.72705 | -9.16491 | 1200 ft | 144 kts | 17° |
| 2026-05-07 18:55 | 38.73617 | -9.16008 | 1030 ft | 143 kts | 18° |
| 2026-05-07 18:56 | 38.74522 | -9.15509 | 775 ft | 144 kts | 18° |
| 2026-05-07 18:56 | 38.75472 | -9.14995 | 612 ft | 143 kts | 18° |
| 2026-05-07 18:56 | 38.76384 | -9.14514 | 439 ft | 143 kts | 18° |
| 2026-05-07 18:56 | 38.77268 | -9.14054 | 367 ft | 118 kts | 22° |
| 2026-05-07 18:57 | 38.77786 | -9.13795 | 373 ft | 61 kts | 22° |
| 2026-05-07 18:57 | 38.78123 | -9.13589 | 373 ft | 27 kts | 21° |
| 2026-05-07 18:57 | 38.78262 | -9.13492 | 374 ft | 40 kts | 39° |
| 2026-05-07 18:57 | 38.78366 | -9.13313 | 369 ft | 9 kts | 96° |
| 2026-05-07 18:58 | 38.78334 | -9.13271 | 369 ft | 6 kts | 176° |
| 2026-05-07 18:58 | 38.78292 | -9.13290 | 372 ft | 5 kts | 210° |
| 2026-05-07 18:58 | 38.78224 | -9.13317 | 366 ft | 14 kts | 198° |
| 2026-05-07 18:58 | 38.78148 | -9.13353 | 366 ft | 0 kts | 202° |
| 2026-05-07 18:59 | 38.78144 | -9.13355 | 365 ft | 3 kts | 202° |
| 2026-05-07 18:59 | 38.78107 | -9.13375 | 371 ft | 8 kts | 203° |
| 2026-05-07 18:59 | 38.78037 | -9.13415 | 367 ft | 14 kts | 204° |
| 2026-05-07 18:59 | 38.77933 | -9.13471 | 365 ft | 19 kts | 202° |
| 2026-05-07 19:00 | 38.77801 | -9.13544 | 367 ft | 23 kts | 202° |
| 2026-05-07 19:00 | 38.77642 | -9.13627 | 364 ft | 26 kts | 202° |
| 2026-05-07 19:00 | 38.77478 | -9.13716 | 367 ft | 26 kts | 202° |
| 2026-05-07 19:00 | 38.77315 | -9.13805 | 362 ft | 13 kts | 203° |
| 2026-05-07 19:01 | 38.77283 | -9.13821 | 366 ft | 12 kts | 201° |
| 2026-05-07 19:01 | 38.77170 | -9.13880 | 361 ft | 21 kts | 203° |
| 2026-05-07 19:01 | 38.77044 | -9.13885 | 363 ft | 19 kts | 168° |
| 2026-05-07 19:01 | 38.76904 | -9.13846 | 358 ft | 22 kts | 169° |
| 2026-05-07 19:02 | 38.76856 | -9.13834 | 358 ft | 5 kts | 169° |
| 2026-05-07 19:02 | 38.76806 | -9.13821 | 358 ft | 9 kts | 168° |
| 2026-05-07 19:02 | 38.76769 | -9.13785 | 355 ft | 5 kts | 112° |
| 2026-05-07 19:02 | 38.76776 | -9.13734 | 358 ft | 7 kts | 79° |
| 2026-05-07 19:03 | 38.76780 | -9.13711 | 358 ft | 3 kts | 79° |
| 2026-05-07 19:03 | 38.76783 | -9.13690 | 357 ft | 0 kts | 78° |